Time;durP1;ratioP1;P1;durP2;ratioP2;P2;SDS_P1;SDS_P2;PMS_P1;PMS_P2;Temp;Humidity;BMP_temperature;BMP_pressure;BME280_temperature;BME280_humidity;BME280_pressure;Samples;Min_cycle;Max_cycle;Signal;HPM_P1;HPM_P2
2023/10/23 00:01:40;;;;;;;3.15;2.40;;;14.70;74.70;;;;;;5029056;28;20478;-75
2023/10/23 00:04:06;;;;;;;3.40;2.70;;;14.70;74.80;;;;;;5032762;28;20036;-76
2023/10/23 00:06:32;;;;;;;3.35;2.58;;;14.70;74.80;;;;;;5024667;28;20382;-75
2023/10/23 00:08:58;;;;;;;3.40;2.80;;;14.70;74.80;;;;;;5045424;28;20044;-75
2023/10/23 00:11:26;;;;;;;3.22;2.47;;;14.70;74.80;;;;;;5040752;28;20057;-75
2023/10/23 00:13:51;;;;;;;3.20;2.50;;;14.60;74.80;;;;;;5040741;28;20394;-75
2023/10/23 00:16:18;;;;;;;3.65;2.75;;;14.60;74.80;;;;;;5017316;28;20048;-75
2023/10/23 00:18:44;;;;;;;3.75;2.78;;;14.60;74.80;;;;;;5032624;28;20463;-75
2023/10/23 00:21:10;;;;;;;3.90;2.88;;;14.60;74.80;;;;;;5039976;28;20029;-75
2023/10/23 00:23:36;;;;;;;3.00;2.42;;;14.50;74.80;;;;;;5041993;28;20036;-75
2023/10/23 00:26:02;;;;;;;3.55;2.67;;;14.50;74.80;;;;;;5041014;28;20037;-75
2023/10/23 00:28:27;;;;;;;3.47;2.83;;;14.50;75.10;;;;;;5023804;28;20045;-75
2023/10/23 00:30:55;;;;;;;3.67;2.65;;;14.50;74.90;;;;;;5011997;28;20030;-75
2023/10/23 00:33:20;;;;;;;3.30;2.53;;;14.50;74.90;;;;;;5027194;28;20034;-76
2023/10/23 00:35:46;;;;;;;3.17;2.63;;;14.50;74.90;;;;;;5025899;28;20029;-76
2023/10/23 00:38:12;;;;;;;3.70;2.70;;;14.40;74.90;;;;;;4994487;28;20088;-76
2023/10/23 00:40:38;;;;;;;3.78;2.60;;;14.40;74.90;;;;;;5026898;28;20029;-75
2023/10/23 00:43:11;;;;;;;3.08;2.65;;;14.40;74.90;;;;;;5027033;28;20079;-75
2023/10/23 00:45:49;;;;;;;3.87;2.60;;;14.40;75.00;;;;;;5026462;28;20048;-75
2023/10/23 00:48:16;;;;;;;3.28;2.60;;;14.40;75.00;;;;;;5026461;28;20784;-75
2023/10/23 00:50:42;;;;;;;3.47;2.47;;;14.40;74.90;;;;;;5024357;28;20164;-76
2023/10/23 00:53:07;;;;;;;3.85;2.83;;;14.30;74.90;;;;;;5028440;28;20104;-75
2023/10/23 00:55:34;;;;;;;3.80;2.72;;;14.30;75.00;;;;;;4993497;28;20061;-75
2023/10/23 00:57:59;;;;;;;5.13;2.78;;;14.30;75.60;;;;;;5028955;28;20086;-75
2023/10/23 01:00:26;;;;;;;3.58;2.75;;;14.30;75.00;;;;;;5010240;28;20026;-75
2023/10/23 01:02:52;;;;;;;3.38;2.58;;;14.30;75.10;;;;;;5010269;28;20471;-75
2023/10/23 01:05:17;;;;;;;3.90;2.80;;;14.20;75.00;;;;;;5025216;28;20091;-75
2023/10/23 01:07:43;;;;;;;3.00;2.63;;;14.20;75.00;;;;;;5026685;28;20034;-75
2023/10/23 01:10:09;;;;;;;3.58;2.90;;;14.20;75.00;;;;;;5025887;28;20041;-76
2023/10/23 01:12:35;;;;;;;4.00;2.75;;;14.20;75.00;;;;;;5010790;28;20448;-75
2023/10/23 01:15:01;;;;;;;3.42;2.58;;;14.20;75.00;;;;;;4991602;28;20033;-75
2023/10/23 01:17:28;;;;;;;3.33;2.70;;;14.20;75.00;;;;;;5025574;28;21536;-75
2023/10/23 01:19:53;;;;;;;3.30;2.80;;;14.10;75.00;;;;;;5007978;28;20053;-75
2023/10/23 01:22:19;;;;;;;3.78;2.80;;;14.10;75.00;;;;;;5009506;28;20033;-75
2023/10/23 01:24:48;;;;;;;3.65;2.83;;;14.10;75.00;;;;;;5026458;28;20025;-75
2023/10/23 01:27:14;;;;;;;3.05;2.55;;;14.10;75.10;;;;;;5008770;28;20033;-76
2023/10/23 01:29:39;;;;;;;3.22;2.50;;;14.10;75.10;;;;;;5009779;28;20379;-75
2023/10/23 01:32:06;;;;;;;3.58;2.70;;;14.00;75.00;;;;;;5009146;28;20034;-75
2023/10/23 01:34:31;;;;;;;3.25;2.78;;;14.00;75.10;;;;;;5026624;28;20360;-75
2023/10/23 01:36:57;;;;;;;3.58;2.70;;;14.00;75.10;;;;;;5027169;28;20494;-76
2023/10/23 01:39:24;;;;;;;3.40;2.70;;;14.00;75.10;;;;;;5010458;28;20029;-75
2023/10/23 01:41:50;;;;;;;3.25;2.45;;;13.90;75.10;;;;;;5013733;28;20140;-75
2023/10/23 01:44:15;;;;;;;3.83;3.05;;;14.00;75.10;;;;;;5028627;28;20557;-75
2023/10/23 01:46:42;;;;;;;3.22;2.45;;;14.00;75.20;;;;;;5010353;28;20475;-77
2023/10/23 01:49:08;;;;;;;3.28;2.47;;;13.90;75.10;;;;;;5002398;28;20084;-75
2023/10/23 01:51:33;;;;;;;3.95;2.97;;;13.90;75.20;;;;;;5028828;28;20494;-75
2023/10/23 01:53:59;;;;;;;3.88;2.83;;;13.90;75.10;;;;;;5027743;28;20036;-75
2023/10/23 01:56:25;;;;;;;3.70;2.85;;;13.90;75.20;;;;;;5027186;28;20193;-76
2023/10/23 01:58:51;;;;;;;3.17;2.65;;;13.90;75.20;;;;;;5026024;28;20030;-75
2023/10/23 02:01:24;;;;;;;3.63;2.67;;;13.90;75.30;;;;;;5028073;28;20026;-75
2023/10/23 02:03:50;;;;;;;3.10;2.70;;;13.90;75.30;;;;;;5008528;28;20041;-75
2023/10/23 02:06:16;;;;;;;3.55;2.90;;;13.90;75.30;;;;;;5021581;28;20475;-76
2023/10/23 02:08:42;;;;;;;3.75;2.78;;;13.80;75.20;;;;;;5029604;28;20497;-75
2023/10/23 02:11:08;;;;;;;3.22;2.70;;;13.80;75.30;;;;;;5031822;28;20128;-75
2023/10/23 02:13:35;;;;;;;3.50;2.70;;;13.80;75.30;;;;;;5007694;28;20536;-75
2023/10/23 02:16:00;;;;;;;3.95;2.60;;;13.80;75.30;;;;;;5017736;28;20044;-75
2023/10/23 02:18:26;;;;;;;3.38;2.78;;;13.80;75.30;;;;;;5030959;28;20037;-75
2023/10/23 02:20:52;;;;;;;3.90;2.80;;;13.80;75.30;;;;;;5013554;28;20140;-75
2023/10/23 02:23:18;;;;;;;3.47;2.70;;;13.80;75.30;;;;;;5031340;28;20117;-75
2023/10/23 02:25:44;;;;;;;3.63;2.83;;;13.80;75.40;;;;;;5033841;28;20059;-75
2023/10/23 02:28:09;;;;;;;3.83;2.72;;;13.80;75.40;;;;;;5034313;28;20061;-75
2023/10/23 02:30:36;;;;;;;3.97;2.78;;;13.80;75.50;;;;;;5009355;28;20324;-75
2023/10/23 02:33:02;;;;;;;3.88;2.72;;;13.80;75.40;;;;;;5027690;28;20026;-75
2023/10/23 02:35:28;;;;;;;3.35;2.63;;;13.70;75.40;;;;;;5029100;28;20033;-75
2023/10/23 02:37:54;;;;;;;3.28;2.67;;;13.80;75.50;;;;;;5029685;28;20067;-75
2023/10/23 02:40:21;;;;;;;4.80;3.20;;;13.80;75.50;;;;;;5013786;28;20034;-75
2023/10/23 02:42:48;;;;;;;3.38;2.58;;;13.80;75.50;;;;;;5028936;28;20033;-76
2023/10/23 02:45:15;;;;;;;3.53;2.80;;;13.70;75.50;;;;;;5012182;28;20474;-75
2023/10/23 02:47:40;;;;;;;3.45;2.70;;;13.70;75.50;;;;;;5029695;28;20037;-75
2023/10/23 02:50:06;;;;;;;3.55;2.70;;;13.80;75.60;;;;;;5032263;28;20030;-75
2023/10/23 02:52:32;;;;;;;4.03;2.70;;;13.70;75.60;;;;;;5026413;28;21704;-75
2023/10/23 02:54:58;;;;;;;3.38;2.67;;;13.70;75.60;;;;;;5030740;28;20112;-76
2023/10/23 02:57:24;;;;;;;3.17;2.67;;;13.70;75.60;;;;;;5016090;28;20037;-75
2023/10/23 02:59:49;;;;;;;3.55;2.72;;;13.70;75.60;;;;;;5030310;28;20033;-75
2023/10/23 03:02:16;;;;;;;3.35;2.63;;;13.70;75.60;;;;;;5027970;28;20033;-75
2023/10/23 03:04:42;;;;;;;3.38;2.63;;;13.70;75.60;;;;;;5027758;28;20087;-75
2023/10/23 03:07:09;;;;;;;3.40;2.85;;;13.80;75.70;;;;;;5029124;28;20041;-76
2023/10/23 03:09:35;;;;;;;4.10;2.88;;;13.70;75.60;;;;;;5042749;28;20021;-75
2023/10/23 03:12:00;;;;;;;3.80;2.88;;;13.70;75.60;;;;;;5030227;28;20045;-75
2023/10/23 03:14:26;;;;;;;3.78;2.90;;;13.70;75.60;;;;;;5035246;28;20045;-75
2023/10/23 03:16:53;;;;;;;3.05;2.58;;;13.70;75.70;;;;;;5029903;28;20494;-75
2023/10/23 03:19:19;;;;;;;3.90;2.72;;;13.70;75.70;;;;;;5031051;28;20090;-76
2023/10/23 03:21:45;;;;;;;3.72;2.80;;;13.70;75.70;;;;;;5029947;28;20057;-75
2023/10/23 03:24:11;;;;;;;2.65;2.33;;;13.70;75.70;;;;;;5026229;28;20579;-76
2023/10/23 03:26:36;;;;;;;3.60;2.67;;;13.70;75.70;;;;;;5025660;28;20041;-75
2023/10/23 03:29:03;;;;;;;3.95;2.80;;;13.70;75.70;;;;;;5028482;28;20528;-75
2023/10/23 03:31:32;;;;;;;3.42;2.65;;;13.70;75.70;;;;;;5010999;28;20056;-76
2023/10/23 03:33:59;;;;;;;3.78;2.70;;;13.70;75.70;;;;;;5026204;28;20116;-76
2023/10/23 03:36:25;;;;;;;3.03;2.53;;;13.70;75.70;;;;;;5028909;28;20490;-75
2023/10/23 03:38:51;;;;;;;3.42;2.83;;;13.70;75.70;;;;;;5027828;28;20486;-76
2023/10/23 03:41:16;;;;;;;3.70;2.90;;;13.70;75.70;;;;;;5027391;28;20033;-76
2023/10/23 03:43:42;;;;;;;2.80;2.22;;;13.70;75.80;;;;;;5029733;28;20516;-75
2023/10/23 03:46:08;;;;;;;4.00;2.47;;;13.70;75.80;;;;;;5012883;28;20030;-75
2023/10/23 03:48:37;;;;;;;3.47;2.92;;;13.70;75.80;;;;;;5029050;28;20104;-75
2023/10/23 03:51:04;;;;;;;2.95;2.60;;;13.70;75.80;;;;;;5027879;28;20539;-76
2023/10/23 03:53:29;;;;;;;2.92;2.45;;;13.70;75.80;;;;;;5024625;28;20262;-75
2023/10/23 03:55:56;;;;;;;3.88;2.78;;;13.70;75.80;;;;;;5028225;28;20033;-75
2023/10/23 03:58:22;;;;;;;4.20;2.88;;;13.70;75.80;;;;;;5028959;28;20108;-75
2023/10/23 04:00:51;;;;;;;3.50;2.65;;;13.70;75.90;;;;;;5027346;28;21799;-75
2023/10/23 04:03:17;;;;;;;4.15;3.03;;;13.70;75.90;;;;;;5028001;28;20025;-76
2023/10/23 04:05:43;;;;;;;3.60;2.83;;;13.70;75.90;;;;;;5032670;28;20056;-75
2023/10/23 04:08:09;;;;;;;3.53;2.58;;;13.70;76.50;;;;;;5028959;28;20033;-75
2023/10/23 04:10:35;;;;;;;3.50;2.60;;;13.70;75.90;;;;;;5043955;28;20060;-75
2023/10/23 04:13:01;;;;;;;3.20;2.75;;;13.70;76.00;;;;;;5037626;28;20026;-75
2023/10/23 04:15:27;;;;;;;3.38;2.78;;;13.60;75.90;;;;;;5044423;28;20547;-75
2023/10/23 04:17:53;;;;;;;3.22;2.58;;;13.70;76.00;;;;;;5038134;28;20025;-75
2023/10/23 04:20:19;;;;;;;3.50;2.58;;;13.70;76.00;;;;;;5037891;28;20082;-75
2023/10/23 04:22:45;;;;;;;4.15;2.80;;;13.60;75.90;;;;;;5043796;28;20029;-76
2023/10/23 04:25:10;;;;;;;2.97;2.33;;;13.70;76.00;;;;;;5036225;28;20429;-75
2023/10/23 04:27:36;;;;;;;3.78;2.63;;;13.70;76.00;;;;;;5036286;28;20065;-75
2023/10/23 04:30:05;;;;;;;3.00;2.33;;;13.70;76.00;;;;;;5028815;28;20044;-76
2023/10/23 04:32:31;;;;;;;3.47;2.60;;;13.60;76.00;;;;;;5026656;28;20067;-75
2023/10/23 04:34:57;;;;;;;3.60;2.83;;;13.70;76.00;;;;;;5011562;28;20030;-75
2023/10/23 04:37:22;;;;;;;3.17;2.63;;;13.60;76.00;;;;;;5016707;28;20037;-75
2023/10/23 04:39:48;;;;;;;3.20;2.55;;;13.60;76.00;;;;;;5026549;28;20137;-75
2023/10/23 04:42:14;;;;;;;2.92;2.50;;;13.60;76.00;;;;;;5027183;28;20032;-76
2023/10/23 04:44:40;;;;;;;3.20;2.42;;;13.70;76.00;;;;;;5026756;28;20038;-75
2023/10/23 04:47:05;;;;;;;3.00;2.35;;;13.60;76.00;;;;;;5028554;28;20060;-75
2023/10/23 04:49:31;;;;;;;4.50;2.58;;;13.70;76.00;;;;;;5025114;28;20041;-75
2023/10/23 04:51:57;;;;;;;2.83;2.28;;;13.60;76.00;;;;;;5024550;28;20041;-75
2023/10/23 04:54:23;;;;;;;3.05;2.47;;;13.70;76.10;;;;;;5034154;28;20425;-75
2023/10/23 04:56:48;;;;;;;3.38;2.70;;;13.60;76.00;;;;;;5039166;28;20037;-75
2023/10/23 04:59:14;;;;;;;3.42;2.42;;;13.60;76.00;;;;;;5046638;28;20026;-76
2023/10/23 05:01:40;;;;;;;2.92;2.38;;;13.70;76.10;;;;;;5035665;28;20037;-75
2023/10/23 05:04:06;;;;;;;4.18;2.70;;;13.70;76.10;;;;;;5033101;28;20051;-75
2023/10/23 05:06:31;;;;;;;3.33;2.78;;;13.70;76.10;;;;;;5037536;28;20561;-76
2023/10/23 05:08:57;;;;;;;3.47;2.70;;;13.70;76.10;;;;;;5041885;28;20477;-74
2023/10/23 05:11:23;;;;;;;2.80;2.47;;;13.60;76.00;;;;;;5035294;28;20546;-75
2023/10/23 05:13:49;;;;;;;3.40;2.58;;;13.60;76.00;;;;;;5031862;28;20029;-76
2023/10/23 05:16:15;;;;;;;2.90;2.40;;;13.60;76.00;;;;;;5027394;28;20048;-75
2023/10/23 05:18:41;;;;;;;3.53;2.58;;;13.70;76.10;;;;;;5026430;28;20410;-75
2023/10/23 05:21:11;;;;;;;2.67;2.28;;;13.60;76.10;;;;;;5018244;28;20557;-75
2023/10/23 05:23:38;;;;;;;3.15;2.70;;;13.70;76.20;;;;;;5030453;28;20030;-76
2023/10/23 05:26:04;;;;;;;3.22;2.63;;;13.60;76.10;;;;;;5021760;28;20042;-75
2023/10/23 05:28:31;;;;;;;3.60;2.80;;;13.60;76.10;;;;;;5025206;28;20270;-75
2023/10/23 05:30:57;;;;;;;3.45;2.75;;;13.60;76.10;;;;;;5023562;28;20557;-76
2023/10/23 05:33:23;;;;;;;2.92;2.35;;;13.60;76.10;;;;;;5026337;28;20044;-75
2023/10/23 05:35:49;;;;;;;3.05;2.45;;;13.60;76.10;;;;;;5023937;28;20121;-75
2023/10/23 05:38:15;;;;;;;3.58;2.83;;;13.60;76.10;;;;;;5024663;28;20530;-75
2023/10/23 05:40:41;;;;;;;2.95;2.40;;;13.60;76.10;;;;;;4991313;28;20029;-76
2023/10/23 05:43:06;;;;;;;3.42;2.67;;;13.60;76.10;;;;;;5038746;28;20466;-74
2023/10/23 05:45:35;;;;;;;3.05;2.63;;;13.60;76.10;;;;;;5026797;28;20147;-76
2023/10/23 05:48:01;;;;;;;3.53;2.70;;;13.60;76.10;;;;;;5032441;28;20037;-75
2023/10/23 05:50:26;;;;;;;3.63;2.47;;;13.60;76.10;;;;;;5038583;28;20033;-74
2023/10/23 05:52:52;;;;;;;3.45;2.70;;;13.60;76.10;;;;;;5035603;28;20570;-74
2023/10/23 05:55:18;;;;;;;2.95;2.53;;;13.60;76.10;;;;;;5033312;28;20032;-75
2023/10/23 05:57:45;;;;;;;3.45;2.80;;;13.60;76.10;;;;;;5035811;28;20040;-75
2023/10/23 06:00:11;;;;;;;4.80;2.70;;;13.60;76.10;;;;;;5035671;28;20029;-75
2023/10/23 06:02:37;;;;;;;4.13;3.10;;;13.60;76.20;;;;;;5034591;28;20478;-73
2023/10/23 06:05:03;;;;;;;3.60;2.47;;;13.60;76.20;;;;;;5035465;28;20068;-74
2023/10/23 06:07:29;;;;;;;3.63;2.90;;;13.60;76.20;;;;;;5039194;28;20033;-74
2023/10/23 06:09:56;;;;;;;3.30;2.58;;;13.60;76.20;;;;;;5035141;28;20037;-74
2023/10/23 06:12:22;;;;;;;3.70;2.97;;;13.60;76.20;;;;;;5044684;28;20057;-75
2023/10/23 06:14:48;;;;;;;3.95;2.90;;;13.60;76.20;;;;;;5041493;28;20762;-75
2023/10/23 06:17:13;;;;;;;3.45;2.70;;;13.60;76.20;;;;;;5044901;28;20492;-75
2023/10/23 06:19:39;;;;;;;3.85;2.97;;;13.60;76.20;;;;;;5038128;28;20056;-75
2023/10/23 06:22:05;;;;;;;4.15;2.95;;;13.60;76.20;;;;;;5034841;28;20033;-75
2023/10/23 06:24:30;;;;;;;3.38;2.72;;;13.60;76.20;;;;;;5039191;28;20029;-75
2023/10/23 06:26:56;;;;;;;3.58;2.80;;;13.60;76.20;;;;;;5018763;28;20378;-74
2023/10/23 06:29:22;;;;;;;3.65;2.80;;;13.60;76.20;;;;;;5041665;28;20087;-75
2023/10/23 06:31:47;;;;;;;3.45;2.80;;;13.60;76.20;;;;;;5046591;28;20044;-75
2023/10/23 06:34:13;;;;;;;3.25;2.67;;;13.60;76.20;;;;;;5045285;28;20474;-75
2023/10/23 06:36:41;;;;;;;2.95;2.65;;;13.60;76.20;;;;;;5040147;28;20124;-75
2023/10/23 06:39:07;;;;;;;3.78;2.80;;;13.60;76.20;;;;;;5039148;28;20490;-74
2023/10/23 06:41:33;;;;;;;4.22;3.05;;;13.60;76.20;;;;;;5038627;28;20044;-75
2023/10/23 06:43:58;;;;;;;3.67;2.78;;;13.60;76.20;;;;;;5041267;28;20022;-75
2023/10/23 06:46:24;;;;;;;4.07;2.95;;;13.60;76.20;;;;;;5038495;28;20042;-75
2023/10/23 06:48:50;;;;;;;3.58;2.92;;;13.60;76.30;;;;;;5037338;28;20488;-74
2023/10/23 06:51:15;;;;;;;3.10;2.60;;;13.60;76.30;;;;;;5034969;28;20116;-74
2023/10/23 06:53:41;;;;;;;3.17;2.65;;;13.60;76.20;;;;;;5038754;28;20391;-75
2023/10/23 06:56:09;;;;;;;4.05;3.03;;;13.60;76.30;;;;;;5041284;28;20038;-75
2023/10/23 06:58:34;;;;;;;3.58;2.90;;;13.70;76.30;;;;;;5035595;28;20025;-75
2023/10/23 07:01:07;;;;;;;3.33;2.90;;;13.60;76.90;;;;;;5037901;28;20479;-75
2023/10/23 07:03:34;;;;;;;3.97;2.95;;;13.60;76.30;;;;;;5036328;28;20029;-75
2023/10/23 07:06:06;;;;;;;3.88;3.08;;;13.60;76.30;;;;;;5019861;28;20045;-75
2023/10/23 07:08:32;;;;;;;3.60;3.00;;;13.70;76.40;;;;;;5041865;28;20037;-75
2023/10/23 07:10:58;;;;;;;3.78;2.78;;;13.60;76.30;;;;;;5039752;28;20045;-75
2023/10/23 07:13:24;;;;;;;3.60;2.80;;;13.60;76.30;;;;;;5035047;28;20033;-75
2023/10/23 07:15:50;;;;;;;3.85;2.83;;;13.60;76.30;;;;;;5036263;28;20044;-75
2023/10/23 07:18:17;;;;;;;3.35;2.70;;;13.60;76.30;;;;;;5041220;28;20465;-75
2023/10/23 07:21:01;;;;;;;3.13;2.58;;;13.60;76.30;;;;;;5039322;28;20124;-75
2023/10/23 07:23:29;;;;;;;3.13;2.60;;;13.60;76.40;;;;;;5035315;28;20033;-75
2023/10/23 07:26:02;;;;;;;3.40;2.65;;;13.60;76.30;;;;;;5044940;28;20120;-75
2023/10/23 07:28:28;;;;;;;3.22;2.58;;;13.70;76.40;;;;;;5037903;28;20041;-75
2023/10/23 07:30:54;;;;;;;3.30;2.63;;;13.70;76.30;;;;;;5032942;28;20030;-75
2023/10/23 07:33:19;;;;;;;3.45;2.42;;;13.60;76.30;;;;;;5019116;28;20030;-74
2023/10/23 07:35:45;;;;;;;3.13;2.40;;;13.60;76.30;;;;;;5044095;28;20025;-75
2023/10/23 07:38:11;;;;;;;3.05;2.53;;;13.70;76.40;;;;;;5027630;28;20500;-75
2023/10/23 07:40:43;;;;;;;3.40;2.63;;;13.70;76.40;;;;;;5038507;28;20082;-75
2023/10/23 07:43:09;;;;;;;3.10;2.42;;;13.70;76.50;;;;;;5035888;28;20123;-75
2023/10/23 07:45:39;;;;;;;2.97;2.42;;;13.70;76.40;;;;;;5042378;28;20359;-75
2023/10/23 07:48:05;;;;;;;3.80;2.60;;;13.70;76.40;;;;;;5044795;28;20119;-75
2023/10/23 07:50:35;;;;;;;3.63;2.70;;;13.70;76.40;;;;;;5039290;28;20533;-75
2023/10/23 07:53:01;;;;;;;3.33;2.75;;;13.70;76.40;;;;;;5031190;28;20030;-76
2023/10/23 07:55:26;;;;;;;3.22;2.60;;;13.70;76.40;;;;;;5041464;28;20024;-74
2023/10/23 07:57:52;;;;;;;3.83;2.67;;;13.70;76.40;;;;;;5034550;28;20037;-74
2023/10/23 08:00:19;;;;;;;3.67;2.80;;;13.70;76.40;;;;;;5027169;28;20076;-74
2023/10/23 08:02:44;;;;;;;3.63;2.92;;;13.70;76.40;;;;;;5030067;28;20029;-77
2023/10/23 08:05:10;;;;;;;3.60;2.67;;;13.70;76.40;;;;;;5026839;28;20512;-77
2023/10/23 08:07:36;;;;;;;3.90;2.90;;;13.70;76.40;;;;;;5019172;28;20037;-75
2023/10/23 08:10:02;;;;;;;3.70;2.70;;;13.70;76.40;;;;;;5042317;28;20087;-75
2023/10/23 08:12:28;;;;;;;2.90;2.42;;;13.70;76.40;;;;;;5034562;28;20137;-76
2023/10/23 08:14:53;;;;;;;4.85;2.72;;;13.70;76.40;;;;;;5024379;28;20112;-76
2023/10/23 08:17:19;;;;;;;3.58;2.80;;;13.70;76.40;;;;;;5040676;28;20069;-76
2023/10/23 08:19:45;;;;;;;3.35;2.55;;;13.70;76.40;;;;;;5021247;28;20033;-76
2023/10/23 08:22:10;;;;;;;3.30;2.67;;;13.70;77.00;;;;;;5041798;28;20541;-76
2023/10/23 08:24:36;;;;;;;3.47;2.63;;;13.80;76.40;;;;;;5032734;28;20032;-75
2023/10/23 08:27:02;;;;;;;3.15;2.67;;;13.70;76.40;;;;;;5035391;28;20041;-74
2023/10/23 08:29:28;;;;;;;3.65;2.58;;;13.80;76.40;;;;;;5046410;28;20037;-73
2023/10/23 08:31:54;;;;;;;3.55;2.67;;;13.70;76.40;;;;;;5028499;28;20022;-75
2023/10/23 08:34:21;;;;;;;3.53;3.00;;;13.70;76.40;;;;;;5046266;28;20506;-74
2023/10/23 08:36:50;;;;;;;3.78;2.80;;;13.70;76.40;;;;;;5023035;28;20068;-74
2023/10/23 08:39:15;;;;;;;2.90;2.38;;;13.80;76.40;;;;;;5017688;28;20037;-74
2023/10/23 08:41:41;;;;;;;3.63;3.00;;;13.80;76.50;;;;;;5038925;28;20482;-74
2023/10/23 08:44:07;;;;;;;3.20;2.67;;;13.80;76.40;;;;;;5039588;28;20036;-74
2023/10/23 08:46:34;;;;;;;3.97;2.85;;;13.80;76.40;;;;;;5036060;28;20394;-74
2023/10/23 08:49:01;;;;;;;3.45;2.72;;;13.80;76.40;;;;;;5040619;28;20041;-74
2023/10/23 08:51:27;;;;;;;3.60;2.72;;;13.80;76.40;;;;;;5036325;28;20072;-74
2023/10/23 08:54:04;;;;;;;4.10;3.20;;;13.80;76.40;;;;;;5035509;28;20092;-74
2023/10/23 08:56:35;;;;;;;4.30;2.58;;;13.80;76.50;;;;;;5040797;28;20072;-74
2023/10/23 08:59:01;;;;;;;4.20;3.30;;;13.80;76.40;;;;;;5040538;28;20102;-75
2023/10/23 09:01:28;;;;;;;4.20;3.08;;;13.80;76.40;;;;;;5036531;28;20029;-74
2023/10/23 09:03:54;;;;;;;3.60;2.95;;;13.80;76.40;;;;;;5034392;28;20033;-75
2023/10/23 09:06:20;;;;;;;3.28;2.80;;;13.80;76.40;;;;;;5026150;28;20042;-74
2023/10/23 09:08:46;;;;;;;3.65;2.92;;;13.80;76.40;;;;;;5035713;28;20107;-74
2023/10/23 09:11:12;;;;;;;4.22;3.13;;;13.80;76.40;;;;;;5031036;28;20057;-74
2023/10/23 09:13:40;;;;;;;4.03;2.78;;;13.80;76.40;;;;;;5040386;28;20033;-74
2023/10/23 09:16:07;;;;;;;4.45;3.30;;;13.90;76.50;;;;;;5038193;28;20116;-74
2023/10/23 09:18:34;;;;;;;3.65;2.95;;;13.90;76.50;;;;;;5037016;28;20056;-74
2023/10/23 09:21:01;;;;;;;4.03;3.33;;;13.90;76.40;;;;;;5043652;28;20044;-74
2023/10/23 09:23:29;;;;;;;3.88;3.05;;;13.90;76.40;;;;;;5037992;28;20534;-74
2023/10/23 09:25:58;;;;;;;3.20;2.70;;;13.90;76.40;;;;;;5021254;28;20036;-74
2023/10/23 09:28:26;;;;;;;5.10;3.45;;;13.90;76.40;;;;;;5016503;28;20036;-74
2023/10/23 09:30:52;;;;;;;4.63;3.53;;;13.90;76.40;;;;;;5035416;28;20036;-74
2023/10/23 09:33:18;;;;;;;3.28;2.63;;;13.90;76.40;;;;;;5027919;28;20363;-74
2023/10/23 09:35:44;;;;;;;4.60;3.30;;;13.90;76.40;;;;;;5028933;28;20112;-74
2023/10/23 09:38:15;;;;;;;4.50;3.38;;;13.90;76.40;;;;;;5033793;28;20095;-75
2023/10/23 09:40:43;;;;;;;4.95;3.70;;;13.90;76.40;;;;;;5037656;28;20024;-74
2023/10/23 09:43:09;;;;;;;4.63;3.60;;;14.00;76.50;;;;;;5022733;28;20029;-74
2023/10/23 09:45:36;;;;;;;4.60;3.30;;;14.00;76.40;;;;;;5034006;28;20536;-74
2023/10/23 09:48:03;;;;;;;4.90;3.33;;;14.00;76.40;;;;;;5020606;28;20389;-74
2023/10/23 09:50:30;;;;;;;4.50;3.08;;;14.00;76.40;;;;;;5035976;28;20033;-74
2023/10/23 09:52:57;;;;;;;3.72;2.97;;;14.00;76.40;;;;;;5041779;28;20033;-74
2023/10/23 09:55:30;;;;;;;3.97;3.05;;;14.00;76.40;;;;;;5031280;28;20172;-74
2023/10/23 09:58:00;;;;;;;4.80;3.60;;;14.10;76.40;;;;;;5040998;28;20037;-75
2023/10/23 10:00:27;;;;;;;4.53;3.13;;;14.10;76.40;;;;;;5036357;28;20022;-74
2023/10/23 10:02:54;;;;;;;4.28;3.38;;;14.10;76.40;;;;;;5041811;28;20033;-74
2023/10/23 10:06:09;;;;;;;5.05;3.88;;;14.10;76.40;;;;;;5043075;28;20183;-74
2023/10/23 10:08:40;;;;;;;4.95;3.42;;;14.10;76.40;;;;;;5004677;28;20038;-74
2023/10/23 10:11:07;;;;;;;4.75;3.55;;;14.20;76.30;;;;;;5042411;28;20045;-74
2023/10/23 10:13:35;;;;;;;4.82;3.50;;;14.20;76.30;;;;;;5036455;28;20032;-74
2023/10/23 10:16:11;;;;;;;5.07;4.00;;;14.20;76.30;;;;;;5033223;28;20037;-74
2023/10/23 10:18:38;;;;;;;5.60;3.90;;;14.20;76.40;;;;;;5036414;28;20029;-73
2023/10/23 10:21:10;;;;;;;4.68;3.60;;;14.20;76.20;;;;;;5035816;28;20029;-74
2023/10/23 10:23:36;;;;;;;4.78;3.53;;;14.30;76.30;;;;;;5028961;28;20032;-74
2023/10/23 10:26:04;;;;;;;5.43;4.20;;;14.30;76.20;;;;;;5025662;28;20482;-74
2023/10/23 10:28:29;;;;;;;5.50;4.18;;;14.30;76.20;;;;;;5027728;28;20033;-74
2023/10/23 10:30:55;;;;;;;5.90;3.97;;;14.30;76.10;;;;;;5043287;28;20025;-74
2023/10/23 10:33:23;;;;;;;5.55;4.00;;;14.40;76.10;;;;;;5032155;28;20563;-75
2023/10/23 10:35:56;;;;;;;5.57;4.38;;;14.40;76.10;;;;;;5036375;28;20027;-74
2023/10/23 10:38:23;;;;;;;4.82;3.50;;;14.40;76.10;;;;;;5042487;28;20025;-75
2023/10/23 10:40:59;;;;;;;5.70;3.72;;;14.40;76.00;;;;;;5037932;28;20034;-74
2023/10/23 10:43:33;;;;;;;5.97;4.07;;;14.40;76.10;;;;;;5039923;28;20048;-74
2023/10/23 10:46:04;;;;;;;4.65;3.47;;;14.50;76.00;;;;;;5024307;28;20030;-75
2023/10/23 10:48:47;;;;;;;4.53;3.55;;;14.50;76.00;;;;;;5041944;28;20057;-74
2023/10/23 10:51:19;;;;;;;5.53;4.10;;;14.50;76.10;;;;;;5042780;28;20103;-74
2023/10/23 10:53:54;;;;;;;5.32;3.83;;;14.50;75.90;;;;;;5039865;28;20034;-74
2023/10/23 10:56:20;;;;;;;5.22;3.97;;;14.60;76.00;;;;;;5034480;28;20033;-74
2023/10/23 10:58:46;;;;;;;5.05;3.78;;;14.60;75.90;;;;;;5045250;28;20476;-74
2023/10/23 11:01:12;;;;;;;5.03;3.63;;;14.60;75.90;;;;;;5032439;28;20026;-75
2023/10/23 11:03:38;;;;;;;4.93;3.63;;;14.60;75.90;;;;;;5042925;28;20463;-76
2023/10/23 11:06:05;;;;;;;5.45;3.90;;;14.60;75.90;;;;;;5040869;28;20516;-75
2023/10/23 11:08:31;;;;;;;5.50;3.85;;;14.70;75.90;;;;;;5037267;28;20033;-74
2023/10/23 11:11:00;;;;;;;5.13;3.67;;;14.70;75.90;;;;;;5046175;28;20051;-73
2023/10/23 11:13:26;;;;;;;5.88;4.20;;;14.70;75.90;;;;;;5041806;28;20075;-75
2023/10/23 11:15:55;;;;;;;5.28;3.88;;;14.80;75.90;;;;;;5042542;28;20064;-75
2023/10/23 11:18:21;;;;;;;4.70;3.75;;;14.80;75.80;;;;;;5020126;28;20127;-75
2023/10/23 11:20:48;;;;;;;5.00;4.03;;;14.80;75.80;;;;;;5040024;28;20036;-74
2023/10/23 11:23:17;;;;;;;5.28;3.92;;;14.80;75.80;;;;;;5043851;28;20170;-75
2023/10/23 11:25:51;;;;;;;5.45;3.85;;;14.90;75.80;;;;;;5052925;28;20436;-75
2023/10/23 11:28:20;;;;;;;5.30;4.00;;;14.90;75.80;;;;;;5044877;28;20030;-75
2023/10/23 11:30:47;;;;;;;5.32;3.65;;;14.90;75.70;;;;;;5022455;28;20119;-75
2023/10/23 11:33:15;;;;;;;5.57;4.05;;;15.00;75.70;;;;;;5033067;28;20026;-75
2023/10/23 11:35:42;;;;;;;4.95;3.78;;;15.00;75.70;;;;;;5044136;28;20032;-75
2023/10/23 11:38:15;;;;;;;4.85;3.90;;;15.00;75.70;;;;;;5042515;28;20075;-75
2023/10/23 11:40:42;;;;;;;5.65;4.30;;;15.00;75.70;;;;;;5025814;28;20032;-75
2023/10/23 11:43:13;;;;;;;5.13;4.13;;;15.00;75.60;;;;;;5034230;28;20021;-75
2023/10/23 11:45:44;;;;;;;5.22;3.88;;;15.10;75.70;;;;;;5041653;28;20386;-75
2023/10/23 11:48:13;;;;;;;6.60;4.63;;;15.10;75.60;;;;;;5037088;28;20048;-75
2023/10/23 11:50:41;;;;;;;6.70;4.03;;;15.10;75.50;;;;;;5041770;28;20081;-75
2023/10/23 11:53:07;;;;;;;6.75;4.65;;;15.20;75.60;;;;;;5043088;28;20099;-76
2023/10/23 11:55:35;;;;;;;6.43;4.45;;;15.20;75.50;;;;;;5036065;28;20049;-75
2023/10/23 11:58:01;;;;;;;5.25;4.00;;;15.20;75.50;;;;;;5049046;28;20044;-75
2023/10/23 12:00:30;;;;;;;6.43;4.75;;;15.20;75.40;;;;;;5047600;28;20048;-73
2023/10/23 12:02:56;;;;;;;5.45;4.30;;;15.30;75.40;;;;;;5033187;28;20367;-75
2023/10/23 12:05:22;;;;;;;5.63;4.40;;;15.30;75.40;;;;;;5040725;28;20033;-75
2023/10/23 12:07:49;;;;;;;6.20;4.45;;;15.30;75.40;;;;;;5038282;28;20059;-75
2023/10/23 12:10:16;;;;;;;5.82;4.32;;;15.40;75.40;;;;;;5030613;28;20113;-75
2023/10/23 12:12:43;;;;;;;6.47;4.45;;;15.40;75.30;;;;;;5040615;28;20128;-75
2023/10/23 12:15:11;;;;;;;5.50;4.18;;;15.40;75.30;;;;;;5025563;28;20366;-75
2023/10/23 12:17:38;;;;;;;5.50;4.43;;;15.40;75.30;;;;;;5017431;28;20512;-75
2023/10/23 12:20:11;;;;;;;7.03;4.47;;;15.40;75.30;;;;;;5040631;28;20108;-75
2023/10/23 12:22:42;;;;;;;5.15;4.13;;;15.50;75.30;;;;;;5020771;28;20025;-75
2023/10/23 12:25:09;;;;;;;6.35;4.15;;;15.50;75.80;;;;;;5041015;28;20363;-75
2023/10/23 12:27:35;;;;;;;5.53;3.80;;;15.50;75.10;;;;;;5032442;28;20029;-75
2023/10/23 12:30:04;;;;;;;5.85;4.18;;;15.60;75.20;;;;;;5042436;28;20136;-75
2023/10/23 12:32:30;;;;;;;6.30;4.32;;;15.60;75.10;;;;;;5019704;28;20385;-75
2023/10/23 12:34:59;;;;;;;6.07;4.18;;;15.70;75.10;;;;;;5045743;28;20025;-74
2023/10/23 12:37:32;;;;;;;5.60;4.10;;;15.70;75.00;;;;;;5049930;28;20033;-75
2023/10/23 12:40:00;;;;;;;4.80;3.60;;;15.70;75.00;;;;;;5036839;28;20037;-75
2023/10/23 12:42:27;;;;;;;5.22;3.63;;;15.70;74.80;;;;;;5035884;28;20021;-76
2023/10/23 12:44:54;;;;;;;5.45;3.63;;;15.80;74.90;;;;;;5025226;28;20394;-75
2023/10/23 12:47:20;;;;;;;5.25;3.45;;;15.80;74.80;;;;;;5033532;28;20052;-76